PWSweather.com
Personal Weather Stations
Station Observations
SANDHURSTWX
SandhurstGB

SandhurstGB

Lat: 51.3522, Lon: -0.7739

Elevation: 272.3

Station Type: Davis VP2

www.sandhurstweather.org.uk

High Low Average
Temperature 67.3°F19.6°C 58.0°F14.4°C 61.4°F16.3°C
Dew Point 63.5°F17.5°C 56.7°F13.7°C 59.8°F15.4°C
Winds 10.4 mph 16.7 kmh 1.2 mph 1.9 kmh 5.0 mph S8.0 kmh S
Wind Gusts 13.8 mph22.2 kmh 2.3 mph3.7 kmh 8.0 mph12.9 kmh
Humidity 98% 80% 95%
Pressure 29.71 in1006.1 mb 29.51 in999.3 mb -
Precipitation 0.91 in23.1 mm - -
Hour Temp Dew Point Humidity Winds Wind Gusts Pressure Precip Precip Rate Daily Precip Total
12:00 AM 61.0°F16.1°C 60.1°F15.6°C 97% 8.1 mph S13.0 kmh S 12.7 mph20.4 kmh 29.71 in1006.1 mb - 0.07 in1.8 mm 0.07 in1.8 mm
01:00 AM 61.1°F16.2°C 60.2°F15.7°C 97% 5.8 mph SSE9.3 kmh SSE 11.5 mph18.5 kmh 29.70 in1005.8 mb - 0.01 in0.3 mm 0.08 in2.0 mm
02:00 AM 61.1°F16.2°C 60.2°F15.7°C 97% 5.8 mph SSE9.3 kmh SSE 8.1 mph13.0 kmh 29.67 in1004.7 mb - 0.00 in0.0 mm 0.08 in2.0 mm
03:00 AM 61.2°F16.2°C 60.3°F15.7°C 97% 6.9 mph S11.1 kmh S 12.7 mph20.4 kmh 29.65 in1004.1 mb - 0.00 in0.0 mm 0.08 in2.0 mm
04:00 AM 61.1°F16.2°C 60.5°F15.8°C 98% 5.8 mph S9.3 kmh S 10.4 mph16.7 kmh 29.61 in1002.7 mb - 0.01 in0.3 mm 0.09 in2.3 mm
05:00 AM 60.9°F16.1°C 60.4°F15.8°C 98% 3.5 mph S5.6 kmh S 6.9 mph11.1 kmh 29.58 in1001.7 mb - 0.13 in3.3 mm 0.22 in5.6 mm
06:00 AM 61.0°F16.1°C 60.4°F15.8°C 98% 5.8 mph S9.3 kmh S 8.1 mph13.0 kmh 29.55 in1000.7 mb - 0.17 in4.3 mm 0.39 in9.9 mm
07:00 AM 61.2°F16.2°C 60.6°F15.9°C 98% 6.9 mph S11.1 kmh S 11.5 mph18.5 kmh 29.53 in1000.0 mb - 0.09 in2.3 mm 0.47 in11.9 mm
08:00 AM 61.1°F16.2°C 60.5°F15.8°C 98% 10.4 mph S16.7 kmh S 10.4 mph16.7 kmh 29.52 in999.7 mb - 0.14 in3.6 mm 0.61 in15.5 mm
09:00 AM 61.6°F16.4°C 61.1°F16.2°C 98% 8.1 mph S13.0 kmh S 9.2 mph14.8 kmh 29.52 in999.7 mb - 0.00 in0.0 mm 0.61 in15.5 mm
10:00 AM 62.2°F16.8°C 61.3°F16.3°C 97% 4.6 mph S7.4 kmh S 5.8 mph9.3 kmh 29.54 in1000.3 mb - 0.00 in0.0 mm 0.61 in15.5 mm
11:00 AM 62.4°F16.9°C 61.8°F16.6°C 98% 5.8 mph SSE9.3 kmh SSE 6.9 mph11.1 kmh 29.52 in999.7 mb - 0.06 in1.5 mm 0.66 in16.8 mm
12:00 PM 65.3°F18.5°C 63.5°F17.5°C 94% 6.9 mph SSE11.1 kmh SSE 13.8 mph22.2 kmh 29.51 in999.3 mb - 0.00 in0.0 mm 0.66 in16.8 mm
01:00 PM 66.5°F19.2°C 62.5°F16.9°C 87% 3.5 mph WSW5.6 kmh WSW 9.2 mph14.8 kmh 29.52 in999.7 mb - 0.00 in0.0 mm 0.66 in16.8 mm
02:00 PM 67.3°F19.6°C 60.9°F16.1°C 80% 2.3 mph SW3.7 kmh SW 3.5 mph5.6 kmh 29.52 in999.7 mb - 0.00 in0.0 mm 0.66 in16.8 mm
03:00 PM 61.6°F16.4°C 59.9°F15.5°C 94% 1.2 mph S1.9 kmh S 3.5 mph5.6 kmh 29.53 in1000.0 mb - 0.18 in4.6 mm 0.84 in21.3 mm
04:00 PM 62.9°F17.2°C 60.9°F16.1°C 93% 3.5 mph SW5.6 kmh SW 4.6 mph7.4 kmh 29.54 in1000.3 mb - 0.01 in0.3 mm 0.85 in21.6 mm
05:00 PM 61.6°F16.4°C 58.9°F14.9°C 91% 3.5 mph SW5.6 kmh SW 5.8 mph9.3 kmh 29.55 in1000.7 mb - 0.00 in0.0 mm 0.85 in21.6 mm
06:00 PM 60.3°F15.7°C 57.7°F14.3°C 91% 3.5 mph S5.6 kmh S 3.5 mph5.6 kmh 29.55 in1000.7 mb - 0.00 in0.0 mm 0.85 in21.6 mm
07:00 PM 59.2°F15.1°C 56.9°F13.8°C 92% 3.5 mph S5.6 kmh S 6.9 mph11.1 kmh 29.57 in1001.4 mb - 0.00 in0.0 mm 0.85 in21.6 mm
08:00 PM 58.9°F14.9°C 57.2°F14.0°C 94% 3.5 mph S5.6 kmh S 4.6 mph7.4 kmh 29.58 in1001.7 mb - 0.02 in0.5 mm 0.87 in22.1 mm
09:00 PM 58.1°F14.5°C 56.7°F13.7°C 95% 3.5 mph SSW5.6 kmh SSW 5.8 mph9.3 kmh 29.57 in1001.4 mb - 0.02 in0.5 mm 0.90 in22.9 mm
10:00 PM 58.1°F14.5°C 57.0°F13.9°C 96% 1.2 mph SW1.9 kmh SW 3.5 mph5.6 kmh 29.56 in1001.0 mb - 0.02 in0.5 mm 0.91 in23.1 mm
11:00 PM 58.0°F14.4°C 56.9°F13.8°C 96% 1.2 mph SW1.9 kmh SW 2.3 mph3.7 kmh 29.55 in1000.7 mb - 0.00 in0.0 mm 0.93 in23.6 mm